BGGHCYTE

Guest
Details From BGGH - Nuuk
To CYTE - Cape Dorset
Flight Number -
Tags generated
Created
Modified
Stats Distance 666 nm / 1,234 km
Max Altitude 34,000 ft / 10,363 m
Waypoints 8
Social Downloads 1
Likes 0
Share VATSIM

Download

Looking for another format? Having issues loading an existing format? Contact us
Advertisement - Login to hide

Notes

Basic altitude profile: - Ascent Rate: 2500ft/min - Ascent Speed: 250kts - Cruise Altitude: 35000ft - Cruise Speed: 420kts - Descent Rate: 1500ft/min - Descent Speed: 250kts Options: - Use NATs: yes - Use PACOTS: yes - Use low airways: yes - Use high airways: yes

Route

BGGH KU 6400N05500W 6400N06000W RUDGA N552C YFB J540 YTE CYTE

ID Type Via Altitude Latitude Longitude Leg Dist Tot Dist Heading (true) Name
O BGGH APT - 0 ft / 0 m 64.19302˚ -51.67645˚ - 0 nm - Nuuk
KU NDB - 4,100 ft / 1,250 m 64.07000˚ -52.01306˚ 11 nm 11 nm 230° / 230° KOOK ISLANDS NDB
6400N05500W LATLON - 32,100 ft / 9,784 m 64.00000˚ -55.00000˚ 78 nm 90 nm 268° / 266° -
6400N06000W LATLON - 34,000 ft / 10,363 m 64.00000˚ -60.00000˚ 131 nm 221 nm 272° / 268° -
RUDGA FIX - 34,000 ft / 10,363 m 64.33333˚ -65.00000˚ 132 nm 354 nm 281° / 276° -
YFB VOR N552C (AWY-HI) 34,000 ft / 10,363 m 63.74167˚ -68.47333˚ 97 nm 452 nm 250° / 247° FROBAY VOR
YTE NDB J540 (AWY-HI) 22,000 ft / 6,706 m 64.22861˚ -76.52806˚ 214 nm 666 nm 281° / 274° CAPE DORSET NDB
O CYTE APT - 0 ft / 0 m 64.23024˚ -76.52487˚ 0 nm 666 nm 40° / 40° Cape Dorset

Altitude Profile

Advertisement - Login to hide

Weather


0- 5 10 15 20 25 30 35+ Temperature / ° C

Clouds and Precipitation
Forecast for 2017-12-16 12:00 UTC. Updated 2 hours ago

Ground ~20,000 ft ~40,000 ft Winds

BGGH

Details ICAO BGGH (GOH)
Name Nuuk
Region Greenland
Timezone America/Godthab (UTC-3.0)
Stats Elevation 283 ft / 86 m (AMSL)
Location 64.193021° -51.676454°
Runways 1
Magnetic Variation 27.017° W

METAR

BGGH 161050Z 04011KT 5000 -FZDZ SCT003 OVC050 M02/M03 Q0981

Decode

TAF

Not found

Departure Runways

ID Width Length Bearing (true) Bearing (mag) Surface Threshold Offset Overrun Length
05 98 ft / 30 m 3,113 ft / 949 m 18.44° 45.46° Asphalt 0 ft / 0 m 0 ft / 0 m
23 98 ft / 30 m 3,113 ft / 949 m 198.44° 225.46° Asphalt 0 ft / 0 m 0 ft / 0 m

CYTE

Details ICAO CYTE (YTE)
Name Cape Dorset
Region Canada
Timezone America/Iqaluit (UTC-5.0)
Stats Elevation 164 ft / 50 m (AMSL)
Location 64.230235° -76.524873°
Runways 1
Magnetic Variation 24.629° W

METAR

CYTE 161100Z AUTO 27004KT 230V290 3SM -SN SCT013 M12/M14 A2930 RMK SLP928

Decode

TAF

TAF TAF CYTE 160638Z 1607/1619 35008KT P6SM -SN SCT020 BKN040 TEMPO 1607/1619 21/2SM -SN BKN020 RMK FCST BASED ON AUTO OBS. NXT FCST BY 161300Z

Decode

Destination Runways

ID Width Length Bearing (true) Bearing (mag) Surface Threshold Offset Overrun Length
13T 98 ft / 30 m 3,973 ft / 1,211 m 127.39° 152.02° Gravel 0 ft / 0 m 0 ft / 0 m
31T 98 ft / 30 m 3,973 ft / 1,211 m 307.41° 332.04° Gravel 0 ft / 0 m 0 ft / 0 m